createdAt,value
2022-12-12T00:00:44.777Z,19.85
2022-12-12T00:03:30.209Z,19.37
2022-12-12T00:06:15.992Z,20.05
2022-12-12T00:09:03.984Z,18.60
2022-12-12T00:11:49.347Z,21.40
2022-12-12T00:14:34.797Z,19.95
2022-12-12T00:17:20.346Z,18.07
2022-12-12T00:20:06.656Z,18.35
2022-12-12T00:22:52.121Z,18.92
2022-12-12T00:25:38.840Z,19.77
2022-12-12T00:28:24.742Z,19.05
2022-12-12T00:31:10.423Z,17.80
2022-12-12T00:33:56.255Z,19.60
2022-12-12T00:36:41.918Z,19.88
2022-12-12T00:39:27.511Z,17.70
2022-12-12T00:42:14.445Z,23.60
2022-12-12T00:45:00.090Z,21.37
2022-12-12T00:47:45.675Z,20.30
2022-12-12T00:50:31.258Z,21.98
2022-12-12T00:53:17.034Z,19.75
2022-12-12T00:56:02.539Z,19.20
2022-12-12T00:58:49.826Z,18.80
2022-12-12T01:01:36.107Z,21.98
2022-12-12T01:04:21.606Z,20.80
2022-12-12T01:07:07.237Z,21.13
2022-12-12T01:09:52.477Z,19.80
2022-12-12T01:12:37.771Z,19.53
2022-12-12T01:15:24.738Z,17.95
2022-12-12T01:18:09.920Z,18.05
2022-12-12T01:20:55.312Z,20.98
2022-12-12T01:23:40.827Z,19.55
2022-12-12T01:26:27.384Z,18.60
2022-12-12T01:29:13.053Z,20.33
2022-12-12T01:32:00.238Z,18.50
2022-12-12T01:34:45.609Z,19.65
2022-12-12T01:37:30.925Z,21.77
2022-12-12T01:40:20.073Z,20.13
2022-12-12T01:43:06.401Z,25.50
2022-12-12T01:46:30.622Z,22.60
2022-12-12T01:49:22.567Z,18.27
2022-12-12T01:52:11.221Z,19.27
2022-12-12T01:54:59.803Z,21.90
2022-12-12T01:57:48.469Z,21.48
2022-12-12T02:00:34.917Z,22.70
2022-12-12T02:03:20.361Z,18.35
2022-12-12T02:06:11.335Z,20.83
2022-12-12T02:09:00.332Z,20.27
2022-12-12T02:11:47.867Z,20.50
2022-12-12T02:14:38.200Z,20.63
2022-12-12T02:17:42.022Z,20.42
2022-12-12T02:20:49.951Z,20.88
2022-12-12T02:24:03.205Z,20.23
2022-12-12T02:27:39.576Z,19.58
2022-12-12T02:30:36.263Z,21.42
2022-12-12T02:33:32.150Z,22.25
2022-12-12T02:36:25.964Z,20.13
2022-12-12T02:39:19.897Z,17.87
2022-12-12T02:42:09.907Z,19.30
2022-12-12T02:45:00.196Z,18.60
2022-12-12T02:47:48.566Z,20.10
2022-12-12T02:50:36.763Z,17.70
2022-12-12T02:53:23.594Z,19.17
2022-12-12T02:56:46.179Z,20.15
2022-12-12T02:59:34.810Z,19.42
2022-12-12T03:02:45.418Z,20.23
2022-12-12T03:06:01.487Z,16.23
2022-12-12T03:08:59.128Z,19.40
2022-12-12T03:11:57.772Z,19.45
2022-12-12T03:14:52.341Z,18.63
2022-12-12T03:17:44.382Z,18.00
2022-12-12T03:20:36.974Z,17.65
2022-12-12T03:23:27.747Z,17.43
2022-12-12T03:26:17.231Z,19.08
2022-12-12T03:29:08.192Z,18.17
2022-12-12T03:31:58.419Z,18.45
2022-12-12T03:34:47.552Z,19.80
2022-12-12T03:37:37.199Z,18.43
2022-12-12T03:40:30.036Z,17.10
2022-12-12T03:43:19.739Z,16.73
2022-12-12T03:46:12.790Z,17.73
2022-12-12T03:49:02.859Z,17.63
2022-12-12T03:51:53.240Z,16.73
2022-12-12T03:54:46.830Z,19.23
2022-12-12T03:57:38.816Z,19.35
2022-12-12T04:00:24.750Z,17.83
2022-12-12T04:03:19.215Z,16.23
2022-12-12T04:06:28.909Z,17.00
2022-12-12T04:09:35.301Z,16.70
2022-12-12T04:12:45.115Z,15.02
2022-12-12T04:15:49.342Z,14.73
2022-12-12T04:18:40.799Z,16.73
2022-12-12T04:21:53.956Z,15.23
2022-12-12T04:24:46.620Z,15.13
2022-12-12T04:27:38.768Z,15.60
2022-12-12T04:30:24.912Z,15.68
2022-12-12T04:33:14.542Z,15.48
2022-12-12T04:36:02.034Z,12.77
2022-12-12T04:38:50.005Z,14.10
2022-12-12T04:41:37.359Z,15.52
2022-12-12T04:44:24.575Z,17.25
2022-12-12T04:47:11.600Z,15.32
2022-12-12T04:50:01.150Z,14.33
2022-12-12T04:52:48.879Z,14.52
2022-12-12T04:55:37.042Z,15.38
2022-12-12T04:58:23.284Z,14.93
2022-12-12T05:01:14.460Z,16.77
2022-12-12T05:04:03.409Z,11.57
2022-12-12T05:06:56.729Z,13.75
2022-12-12T05:09:43.225Z,15.13
2022-12-12T05:12:28.862Z,16.02
2022-12-12T05:15:15.689Z,13.73
2022-12-12T05:18:05.598Z,13.53
2022-12-12T05:20:51.222Z,14.15
2022-12-12T05:23:38.107Z,14.85
2022-12-12T05:26:25.489Z,13.05
2022-12-12T05:29:11.659Z,12.48
2022-12-12T05:31:57.130Z,12.53
2022-12-12T05:34:42.406Z,11.90
2022-12-12T05:37:27.676Z,13.00
2022-12-12T05:40:14.626Z,13.10
2022-12-12T05:42:59.975Z,11.43
2022-12-12T05:45:45.538Z,12.83
2022-12-12T05:48:30.914Z,11.48
2022-12-12T05:51:16.728Z,13.07
2022-12-12T05:54:02.148Z,12.23
2022-12-12T05:56:48.905Z,12.70
2022-12-12T05:59:35.208Z,10.23
2022-12-12T06:02:20.585Z,12.23
2022-12-12T06:05:06.689Z,12.90
2022-12-12T06:07:52.532Z,11.95
2022-12-12T06:10:37.827Z,12.20
2022-12-12T06:13:24.683Z,12.83
2022-12-12T06:16:14.748Z,13.23
2022-12-12T06:18:59.952Z,13.30
2022-12-12T06:21:45.314Z,13.73
2022-12-12T06:24:30.785Z,13.27
2022-12-12T06:27:16.293Z,12.33
2022-12-12T06:30:03.911Z,13.13
2022-12-12T06:32:49.465Z,13.38
2022-12-12T06:35:35.087Z,14.52
2022-12-12T06:38:20.833Z,11.35
2022-12-12T06:41:07.918Z,12.97
2022-12-12T06:43:53.646Z,12.82
2022-12-12T06:46:40.984Z,12.80
2022-12-12T06:49:26.465Z,13.57
2022-12-12T06:52:12.613Z,13.10
2022-12-12T06:54:58.264Z,14.00
2022-12-12T06:57:43.877Z,14.98
2022-12-12T07:00:29.668Z,13.27
2022-12-12T07:03:17.646Z,13.00
2022-12-12T07:06:03.027Z,14.50
2022-12-12T07:08:48.743Z,16.37
2022-12-12T07:11:34.182Z,14.95
2022-12-12T07:14:19.652Z,13.73
2022-12-12T07:17:04.905Z,12.93
2022-12-12T07:19:51.923Z,19.40
2022-12-12T07:22:37.589Z,14.40
2022-12-12T07:25:22.779Z,14.80
2022-12-12T07:28:08.691Z,14.40
2022-12-12T07:30:54.139Z,14.73
2022-12-12T07:33:44.154Z,13.50
2022-12-12T07:36:31.808Z,13.37
2022-12-12T07:39:20.966Z,16.67
2022-12-12T07:42:06.823Z,14.43
2022-12-12T07:44:51.931Z,15.85
2022-12-12T07:47:37.348Z,15.35
2022-12-12T07:50:22.692Z,14.47
2022-12-12T07:53:09.559Z,17.23
2022-12-12T07:55:55.137Z,15.32
2022-12-12T07:58:40.475Z,15.82
2022-12-12T08:01:27.578Z,15.73
2022-12-12T08:04:12.876Z,17.17
2022-12-12T08:07:03.948Z,15.10
2022-12-12T08:09:53.480Z,17.60
2022-12-12T08:12:38.801Z,15.38
2022-12-12T08:15:24.039Z,17.73
2022-12-12T08:18:09.421Z,15.50
2022-12-12T08:20:54.634Z,14.25
2022-12-12T08:23:40.864Z,14.60
2022-12-12T08:26:28.471Z,18.85
2022-12-12T08:29:13.754Z,14.60
2022-12-12T08:31:59.030Z,16.47
2022-12-12T08:34:44.270Z,16.85
2022-12-12T08:37:30.451Z,14.60
2022-12-12T08:40:16.018Z,17.80
2022-12-12T08:43:02.653Z,15.80
2022-12-12T08:45:48.378Z,14.50
2022-12-12T08:48:33.803Z,15.27
2022-12-12T08:51:19.540Z,16.15
2022-12-12T08:54:05.301Z,15.50
2022-12-12T08:56:50.834Z,17.17
2022-12-12T08:59:37.670Z,15.57
2022-12-12T09:02:23.444Z,13.90
2022-12-12T09:05:09.821Z,13.75
2022-12-12T09:07:55.207Z,16.25
2022-12-12T09:10:40.984Z,16.98
2022-12-12T09:13:26.695Z,15.20
2022-12-12T09:16:14.119Z,14.45
2022-12-12T09:19:00.001Z,14.25
2022-12-12T09:21:45.199Z,16.50
2022-12-12T09:24:30.590Z,15.02
2022-12-12T09:27:15.770Z,14.83
2022-12-12T09:30:00.971Z,16.25
2022-12-12T09:32:47.646Z,13.98
2022-12-12T09:35:33.376Z,15.60
2022-12-12T09:38:21.053Z,15.07
2022-12-12T09:41:13.834Z,15.23
2022-12-12T09:44:03.071Z,15.63
2022-12-12T09:46:52.322Z,15.15
2022-12-12T09:49:45.308Z,13.35
2022-12-12T09:52:33.430Z,13.88
2022-12-12T09:55:31.028Z,14.37
2022-12-12T09:58:22.825Z,13.23
2022-12-12T10:01:18.425Z,14.50
2022-12-12T10:04:15.574Z,15.10
2022-12-12T10:07:07.923Z,12.02
2022-12-12T10:10:02.516Z,12.40
2022-12-12T10:12:48.718Z,13.07
2022-12-12T10:15:37.864Z,12.50
2022-12-12T10:18:30.402Z,13.35
2022-12-12T10:21:21.034Z,12.60
2022-12-12T10:24:19.879Z,12.03
2022-12-12T10:27:10.085Z,11.95
2022-12-12T10:29:59.527Z,11.63
2022-12-12T10:32:59.536Z,12.63
2022-12-12T10:35:55.962Z,11.68
2022-12-12T10:39:03.707Z,11.50
2022-12-12T10:41:57.210Z,11.93
2022-12-12T10:44:58.593Z,12.38
2022-12-12T10:47:44.252Z,10.70
2022-12-12T10:50:34.567Z,11.50
2022-12-12T10:53:21.564Z,10.30
2022-12-12T10:56:11.399Z,10.50
2022-12-12T10:59:00.022Z,10.60
2022-12-12T11:02:11.801Z,10.07
2022-12-12T11:05:06.557Z,10.82
2022-12-12T11:08:01.473Z,10.33
2022-12-12T11:11:00.065Z,10.63
2022-12-12T11:13:50.076Z,10.15
2022-12-12T11:16:43.884Z,9.68
2022-12-12T11:19:38.352Z,8.70
2022-12-12T11:22:24.769Z,9.57
2022-12-12T11:25:23.501Z,8.40
2022-12-12T11:28:21.815Z,9.18
2022-12-12T11:31:09.990Z,10.50
2022-12-12T11:34:00.184Z,10.90
2022-12-12T11:36:45.660Z,10.03
2022-12-12T11:39:37.311Z,12.52
2022-12-12T11:42:26.766Z,11.77
2022-12-12T11:45:22.237Z,12.05
2022-12-12T11:48:32.297Z,11.07
2022-12-12T11:51:32.252Z,11.50
2022-12-12T11:54:22.706Z,10.85
2022-12-12T11:57:15.184Z,11.73
2022-12-12T12:00:13.890Z,13.27
2022-12-12T12:03:16.943Z,13.30
2022-12-12T12:06:23.078Z,13.37
2022-12-12T12:09:22.420Z,13.48
2022-12-12T12:12:13.124Z,13.90
2022-12-12T12:15:19.158Z,13.82
2022-12-12T12:18:29.477Z,13.50
2022-12-12T12:21:27.095Z,12.80
2022-12-12T12:24:32.275Z,14.25
2022-12-12T12:27:25.741Z,15.18
2022-12-12T12:30:19.499Z,13.55
2022-12-12T12:33:25.985Z,15.38
2022-12-12T12:36:21.360Z,13.27
2022-12-12T12:39:20.348Z,12.60
2022-12-12T12:42:20.452Z,11.27
2022-12-12T12:45:16.970Z,12.77
2022-12-12T12:48:10.861Z,12.95
2022-12-12T12:51:05.933Z,11.77
2022-12-12T12:53:55.852Z,12.30
2022-12-12T12:56:48.656Z,11.57
2022-12-12T12:59:37.842Z,10.23
2022-12-12T13:02:28.871Z,11.93
2022-12-12T13:05:21.003Z,10.17
2022-12-12T13:08:14.486Z,13.07
2022-12-12T13:11:05.784Z,13.02
2022-12-12T13:13:57.869Z,10.45
2022-12-12T13:16:44.720Z,10.55
2022-12-12T13:19:35.828Z,10.93
2022-12-12T13:22:30.307Z,10.25
2022-12-12T13:25:26.178Z,12.32
2022-12-12T13:28:18.495Z,11.55
2022-12-12T13:31:25.147Z,9.75
2022-12-12T13:34:13.322Z,9.13
2022-12-12T13:36:59.176Z,10.15
2022-12-12T13:39:45.159Z,10.38
2022-12-12T13:42:51.864Z,8.32
2022-12-12T13:45:43.383Z,10.82
2022-12-12T13:48:46.196Z,10.37
2022-12-12T13:51:34.871Z,9.00
2022-12-12T13:54:44.143Z,9.82
2022-12-12T13:57:33.556Z,9.38
2022-12-12T14:00:20.192Z,11.10
2022-12-12T14:03:19.455Z,17.07
2022-12-12T14:06:19.666Z,16.02
2022-12-12T14:09:05.440Z,16.17
2022-12-12T14:11:51.001Z,15.15
2022-12-12T14:14:37.001Z,16.40
2022-12-12T14:17:24.415Z,18.63
2022-12-12T14:20:25.532Z,29.73
2022-12-12T14:23:26.714Z,29.73
2022-12-12T14:26:47.821Z,32.47
2022-12-12T14:29:35.225Z,24.98
2022-12-12T14:32:40.147Z,22.20
2022-12-12T14:35:32.593Z,20.10
2022-12-12T14:38:28.568Z,19.95
2022-12-12T14:41:18.279Z,19.35
2022-12-12T14:44:36.963Z,15.50
2022-12-12T14:47:17.550Z,16.77
2022-12-12T14:50:10.247Z,15.52
2022-12-12T14:52:55.710Z,13.55
2022-12-12T14:55:49.634Z,15.07
2022-12-12T14:58:40.489Z,17.92
2022-12-12T15:01:32.410Z,14.00
2022-12-12T15:04:22.590Z,17.15
2022-12-12T15:07:23.143Z,16.80
2022-12-12T15:10:23.297Z,17.55
2022-12-12T15:13:17.140Z,16.50
2022-12-12T15:16:02.631Z,19.90
2022-12-12T15:18:48.216Z,19.67
2022-12-12T15:21:34.102Z,18.75
2022-12-12T15:24:22.330Z,20.30
2022-12-12T15:27:07.871Z,23.13
2022-12-12T15:29:55.769Z,21.33
2022-12-12T15:32:46.494Z,22.10
2022-12-12T15:35:32.577Z,24.50
2022-12-12T15:38:18.777Z,30.58
2022-12-12T15:41:11.204Z,32.25
2022-12-12T15:43:57.571Z,40.70
2022-12-12T15:46:46.378Z,47.58
2022-12-12T15:49:40.220Z,42.63
2022-12-12T15:52:27.936Z,45.33
2022-12-12T15:55:21.770Z,50.70
2022-12-12T15:58:28.685Z,44.93
2022-12-12T16:01:22.306Z,42.70
2022-12-12T16:04:25.423Z,47.80
2022-12-12T16:07:22.161Z,41.70
2022-12-12T16:10:23.730Z,42.90
2022-12-12T16:13:23.370Z,37.10
2022-12-12T16:16:45.507Z,43.40
2022-12-12T16:19:42.118Z,36.90
2022-12-12T16:22:32.858Z,35.60
2022-12-12T16:25:21.329Z,33.22
2022-12-12T16:28:23.163Z,33.07
2022-12-12T16:31:15.750Z,30.55
2022-12-12T16:34:02.916Z,31.52
2022-12-12T16:36:49.901Z,28.05
2022-12-12T16:39:36.057Z,26.98
2022-12-12T16:42:24.019Z,28.00
2022-12-12T16:45:11.635Z,21.90
2022-12-12T16:47:58.397Z,24.63
2022-12-12T16:50:44.786Z,22.02
2022-12-12T16:53:32.171Z,24.00
2022-12-12T16:56:17.824Z,24.57
2022-12-12T16:59:03.105Z,23.20
2022-12-12T17:01:48.765Z,25.67
2022-12-12T17:04:34.385Z,24.27
2022-12-12T17:07:20.226Z,27.30
2022-12-12T17:10:09.436Z,22.50
2022-12-12T17:12:55.279Z,26.65
2022-12-12T17:15:40.791Z,25.08
2022-12-12T17:18:27.205Z,31.02
2022-12-12T17:21:12.812Z,31.50
2022-12-12T17:23:58.063Z,35.90
2022-12-12T17:26:45.655Z,35.42
2022-12-12T17:29:30.714Z,37.13
2022-12-12T17:32:20.248Z,38.53
2022-12-12T17:35:10.851Z,42.58
2022-12-12T17:37:58.373Z,40.27
2022-12-12T17:40:44.950Z,32.97
2022-12-12T17:43:32.298Z,37.28
2022-12-12T17:46:20.377Z,33.00
2022-12-12T17:49:06.200Z,35.92
2022-12-12T17:51:53.401Z,32.93
2022-12-12T17:54:39.266Z,34.55
2022-12-12T17:57:25.571Z,37.40
2022-12-12T18:00:14.951Z,37.70
2022-12-12T18:03:00.714Z,37.97
2022-12-12T18:05:46.143Z,29.93
2022-12-12T18:08:33.688Z,34.00
2022-12-12T18:11:27.281Z,27.95
2022-12-12T18:14:19.224Z,28.52
2022-12-12T18:17:06.430Z,25.45
2022-12-12T18:19:52.412Z,27.43
2022-12-12T18:22:38.412Z,27.77
2022-12-12T18:25:25.542Z,29.58
2022-12-12T18:28:14.017Z,34.88
2022-12-12T18:30:59.941Z,39.08
2022-12-12T18:33:47.743Z,48.07
2022-12-12T18:36:33.834Z,50.35
2022-12-12T18:39:20.352Z,55.17
2022-12-12T18:42:07.237Z,63.75
2022-12-12T18:48:02.021Z,50.80
2022-12-12T18:50:50.447Z,47.22
2022-12-12T18:53:37.117Z,48.72
2022-12-12T18:56:25.831Z,44.30
2022-12-12T18:59:12.805Z,44.28
2022-12-12T19:01:59.148Z,40.77
2022-12-12T19:04:52.058Z,38.22
2022-12-12T19:07:40.437Z,41.97
2022-12-12T19:10:26.847Z,40.53
2022-12-12T19:13:13.767Z,36.08
2022-12-12T19:16:05.054Z,37.20
2022-12-12T19:18:53.036Z,32.28
2022-12-12T19:21:40.156Z,33.05
2022-12-12T19:24:30.919Z,32.00
2022-12-12T19:27:17.576Z,33.60
2022-12-12T19:30:04.714Z,33.73
2022-12-12T19:32:51.469Z,35.67
2022-12-12T19:35:38.056Z,34.63
2022-12-12T19:38:24.749Z,27.17
2022-12-12T19:41:14.649Z,25.55
2022-12-12T19:44:05.468Z,28.97
2022-12-12T19:46:53.010Z,24.17
2022-12-12T19:49:39.684Z,25.40
2022-12-12T19:52:25.703Z,20.73
2022-12-12T19:55:12.083Z,22.83
2022-12-12T19:58:03.321Z,20.60
2022-12-12T20:00:51.096Z,20.35
2022-12-12T20:03:38.456Z,19.13
2022-12-12T20:06:29.749Z,21.95
2022-12-12T20:09:18.316Z,21.80
2022-12-12T20:12:06.123Z,17.87
2022-12-12T20:14:57.986Z,19.60
2022-12-12T20:17:47.655Z,19.17
2022-12-12T20:20:34.841Z,19.88
2022-12-12T20:23:20.805Z,21.58
2022-12-12T20:26:09.054Z,21.30
2022-12-12T20:28:56.956Z,20.58
2022-12-12T20:31:46.177Z,21.67
2022-12-12T20:34:32.732Z,26.08
2022-12-12T20:37:20.617Z,24.83
2022-12-12T20:40:08.027Z,23.60
2022-12-12T20:42:58.527Z,20.92
2022-12-12T20:45:48.827Z,21.63
2022-12-12T20:48:37.401Z,26.08
2022-12-12T20:51:53.445Z,24.77
2022-12-12T20:54:30.700Z,26.43
2022-12-12T20:57:19.254Z,26.05
2022-12-12T21:00:07.333Z,21.77
2022-12-12T21:02:53.603Z,23.88
2022-12-12T21:05:42.020Z,26.17
2022-12-12T21:08:28.314Z,22.27
2022-12-12T21:11:16.236Z,21.63
2022-12-12T21:14:02.654Z,24.70
2022-12-12T21:16:48.897Z,28.48
2022-12-12T21:19:34.986Z,31.55
2022-12-12T21:22:21.970Z,34.60
2022-12-12T21:25:07.791Z,36.53
2022-12-12T21:27:53.857Z,32.38
2022-12-12T21:30:41.563Z,33.55
2022-12-12T21:33:28.468Z,30.25
2022-12-12T21:36:16.787Z,33.17
2022-12-12T21:39:06.641Z,32.05
2022-12-12T21:41:51.909Z,31.27
2022-12-12T21:44:45.385Z,33.50
2022-12-12T21:47:31.392Z,31.90
2022-12-12T21:50:16.940Z,27.83
2022-12-12T21:53:28.175Z,31.98
2022-12-12T21:56:17.483Z,29.42
2022-12-12T21:59:03.477Z,26.75
2022-12-12T22:01:48.862Z,29.17
2022-12-12T22:04:34.633Z,28.40
2022-12-12T22:07:20.916Z,28.63
2022-12-12T22:10:10.972Z,29.17
2022-12-12T22:12:58.408Z,29.25
2022-12-12T22:15:43.697Z,26.25
2022-12-12T22:18:29.034Z,28.87
2022-12-12T22:21:16.787Z,30.40
2022-12-12T22:24:02.581Z,29.70
2022-12-12T22:26:49.784Z,30.17
2022-12-12T22:29:36.963Z,28.70
2022-12-12T22:32:22.253Z,27.87
2022-12-12T22:35:08.658Z,28.17
2022-12-12T22:37:54.228Z,25.52
2022-12-12T22:40:39.729Z,28.50
2022-12-12T22:43:25.000Z,33.17
2022-12-12T22:46:11.723Z,33.77
2022-12-12T22:49:00.962Z,34.72
2022-12-12T22:51:47.882Z,40.72
2022-12-12T22:54:33.463Z,39.35
2022-12-12T22:57:19.333Z,38.40
2022-12-12T23:00:06.202Z,39.63
2022-12-12T23:02:52.831Z,39.22
2022-12-12T23:05:38.297Z,39.63
2022-12-12T23:08:24.148Z,37.58
2022-12-12T23:11:11.818Z,36.45
2022-12-12T23:14:00.757Z,36.67
2022-12-12T23:16:46.606Z,34.53
2022-12-12T23:19:33.329Z,34.17
2022-12-12T23:22:19.080Z,36.33
2022-12-12T23:25:05.099Z,31.98
2022-12-12T23:27:50.246Z,31.00
2022-12-12T23:30:37.600Z,33.92
2022-12-12T23:33:23.164Z,38.78
2022-12-12T23:36:11.571Z,36.47
2022-12-12T23:38:58.491Z,42.33
2022-12-12T23:41:44.618Z,35.93
2022-12-12T23:44:30.005Z,43.05
2022-12-12T23:47:15.235Z,43.90
2022-12-12T23:50:00.428Z,44.10
2022-12-12T23:52:47.101Z,41.00
2022-12-12T23:55:32.336Z,47.43
2022-12-12T23:58:18.290Z,43.83
